Bob Hope Airport
KBUR : now visible

Airfield :











YOU CAN JOIN US ON...

 
LOGIN :

Register | Disclaimer

   EN    FR    IT 

 









Legend :    VFR   Marginal VFR   IFR   Intensive IFR   Very Intensive IFR
Visi :
Ceiling :
>= 8 km
>= 3000ft
5 to 8 km
1000 to 3000 ft
1500m to 5 km
500 to 1000 ft
800 to 1500m
200 to 500 ft
< 800m
< 200 ft
Symbols :   Thunderstorms  Fog  Heavy snow  Heavy precipitations  Wind > 20 kt






- Airport Elevation : 778 ft
- IATA code : BUR


KBUR - Bob Hope

CURRENT METAR :
  • 042053Z 16008KT 10SM CLR 26/16 A2996 RMK AO2 SLP131 T02610161 58009

EXPIRED METARs :
  • 041953Z 17010KT 10SM CLR 25/16 A2998 RMK AO2 SLP138 T02500161

TAF KBUR
Valid from the 04 at 18:00 until the 05 at 18:00 UTC


041744Z 0418/0518 16006KT 5SM HZ SCT012
FM042000 18010KT P6SM SKC
FM050400 12008KT P6SM SKC
FM050900 VRB03KT P6SM BKN007
FM051200 14005KT P6SM OVC010
KZLA FIR / North America



MET'MAP, your aeronautical weather chart ! - Copyright ORBIFLY December 2007 - Disclaimer

ORBIFLY MET'MAP TEAM :

Programming & Development : Alexandra Zaïnal
Concept & original design : Baudouin d'Aumeries
Assistance for programming : Marc-Olivier Méhu
Technical & hardware support : Manuel Goepfert

Contact : metmap@orbifly.com




SOURCES & CREDITS :

   NOAA       Earth
Advisory